Otto, WY

10:51 AM MDT on March 23, 2017 (GMT -0600)
West Basin | | Change Station

Elev 3873 ft 44.38 °N, 108.05 °W | Updated 3 seconds ago

Rain
Rain
46.8 °F
Feels Like 45 °F
N
4.6
Wind Variable Wind from West
Gusts 4.6 mph

Today
High -- | Low -- °F
--% Chance of Precip.
Yesterday
High -- | Low -- °F
Precip. -- in
Pressure 29.68 in
Visibility 10.0 miles
Clouds Mostly Cloudy 4900 ft
Overcast 6000 ft
Windchill 45 °F
Dew Point 44 °F
Humidity 90%
Rainfall 0.04 in
Snow Depth Not available.
7:10 AM 7:29 PM
Waning Crescent, 22% visible
METAR KGEY 231553Z AUTO 33010KT 10SM -RA BKN049 OVC060 08/06 A2970 RMK AO2 SLP049 P0003 T00830056
Pressure 29.68 in
Visibility 10.0 miles
Clouds Mostly Cloudy 4900 ft
Overcast 6000 ft
Windchill 45 °F
Dew Point 44 °F
Humidity 90%
Rainfall 0.04 in
Snow Depth Not available.
7:10 AM 7:29 PM
Waning Crescent, 22% visible
METAR KGEY 231553Z AUTO 33010KT 10SM -RA BKN049 OVC060 08/06 A2970 RMK AO2 SLP049 P0003 T00830056

Get Severe Weather Alerts

Thanks for signing up!

Be on the lookout for a verification email in your inbox.

You'll start receiving the daily forecast at 8 AM.

×

10-Day Weather Forecast

Almanac

Astronomy

Mar. 23, 2017 Rise Set
Actual Time
Civil Twilight
Nautical Twilight
Astronomical Twilight
Moon
Length of Visible Light
Length of Day
Tomorrow will be .
, % of the Moon is Illuminated

Today's Extremes

State Highs State Lows

Community

WunderPhotos

Upload Photos

1,962,540 photos uploaded!

WunderBlog® & News

Nearby

Air Quality

  Air Quality AQ Index Pollutant
Not available.

Snow Depth

Station Depth Elevation

Earthquake Activity

City Distance Mag. Time & Date
Minimum magnitude displayed is 2.5.

Earthquake Activity

City Distance Mag. Time & Date
Minimum magnitude displayed is 2.5.

Coastal Water Temperatures

Place Temperature

Stations

Nearby Weather Stations

Station Location Temp. Windchill Dew Point Humidity Wind Precip. Elev Updated Type
                   

Watches & Warnings

There are currently no watches in effect.